メインページ
METAR-TAF:

METAR-TAF

空港 :

アムステルダム, オランダ

アムステルダム・スキポール空港

緯度: 52-18N, 経度: 004-46E, 海抜: -4m

現時点の気象観測

当レポートは44分前の14:55(UTC)に作成
西/南西の風 13kt、南西から西の間で変化する
気温 17°C
湿度 82%
気圧 1011 hPa
視程10km以上
高度1000ftの雲はほとんどない
高度1600ftの雲は散在している
高度2500ftの千切れ雲あり

METAR: EHAM 251455Z 25013KT 220V280 9999 FEW010 SCT016 BKN025 17/14 Q1011 NOSIG

時間: 17:39 (15:39 UTC)

予報

当レポートは4時間54分前の10:45(UTC)に作成
予報は25日の 12時(UTC)から 26日の 18時(UTC)まで有効
西の風 16kt
視程10km以上
高度2000ftの雲は散在している
高度3000ftの千切れ雲あり
確率 30% :
25日の 12時(UTC)から 25日の 18時(UTC)まで一時的に
視程: 7000m
高度1800ftの雲はほとんどない, 塔状積雲.
弱いにわか雨
25日の 16時(UTC)から 25日の 19時(UTC)まで徐々に
南西の風 13kt
25日の 18時(UTC)から 25日の 24時(UTC)まで一時的に
視程: 6000m
高度800ftの雲はほとんどない
高度1200ftの千切れ雲あり
高度1500ftの雲は散在している, 塔状積雲.
にわか雨, 雨
25日の 22時(UTC)から 25日の 24時(UTC)まで徐々に
西/北西の風 8kt
高度3000ftの雲は散在している
26日の 15時(UTC)から 26日の 18時(UTC)まで徐々に
の風 7kt

TAF: EHAM 251045Z 2512/2618 26016KT 9999 SCT020 BKN030 PROB30 TEMPO 2512/2518 7000 -SHRA FEW018TCU BECMG 2516/2519 23013KT TEMPO 2518/2524 6000 SHRA RA FEW008 BKN012 SCT015TCU BECMG 2522/2524 30008KT SCT030 BECMG 2615/2618 01007KT

4,000以上の空港の気象観測と天気予報(METAR報とTAF報)

利用可能な観測所は地図上に黄色い丸と赤い丸で示す。

丸の上にカーソルを重ねると観測所名を参照できる。

次にクリックすると気象観測と天気予報を参照できる。

マップの切り替え:黒色「×」印の緑ボタンをクリックして拡大、「-」印の緑ボタンをクリックして縮小、緑色の三角印をクリックして隣りの地図に切り替え


METAR-TAF: